Time;durP1;ratioP1;P1;durP2;ratioP2;P2;SDS_P1;SDS_P2;PMS_P1;PMS_P2;Temp;Humidity;BMP_temperature;BMP_pressure;BME280_temperature;BME280_humidity;BME280_pressure;Samples;Min_cycle;Max_cycle;Signal;HPM_P1;HPM_P2
2022/08/31 00:04:01;;;;;;;;;;;24.20;99.90;;;;;;5112921;29;20066;-73
2022/08/31 00:06:34;;;;;;;1999.90;999.90;;;24.30;99.90;;;;;;5109393;29;19928;-73
2022/08/31 00:09:06;;;;;;;1999.90;999.90;;;24.20;99.90;;;;;;5112488;28;20063;-73
2022/08/31 00:11:37;;;;;;;1999.90;999.90;;;24.10;99.90;;;;;;5112921;29;20126;-73
2022/08/31 00:14:09;;;;;;;1999.90;999.90;;;24.10;99.90;;;;;;5112972;29;20056;-73
2022/08/31 00:16:42;;;;;;;1999.90;999.90;;;24.10;99.90;;;;;;5115948;29;20162;-73
2022/08/31 00:19:15;;;;;;;1999.90;999.90;;;24.10;99.90;;;;;;5108698;29;20130;-73
2022/08/31 00:21:46;;;;;;;1999.90;999.90;;;24.10;99.90;;;;;;5116834;28;20023;-73
2022/08/31 00:24:16;;;;;;;1999.90;999.90;;;24.00;99.90;;;;;;5118562;29;20723;-73
2022/08/31 00:26:47;;;;;;;1999.90;999.90;;;23.90;99.90;;;;;;5106819;28;20059;-73
2022/08/31 00:29:18;;;;;;;1999.90;999.90;;;23.80;99.90;;;;;;5113733;29;20039;-73
2022/08/31 00:31:49;;;;;;;1999.90;999.90;;;23.90;99.90;;;;;;5105362;29;20472;-73
2022/08/31 00:34:21;;;;;;;1999.90;999.90;;;23.90;99.90;;;;;;5108706;28;20110;-73
2022/08/31 00:36:52;;;;;;;1999.90;999.90;;;23.90;99.90;;;;;;5107229;29;20054;-73
2022/08/31 00:39:23;;;;;;;1999.90;999.90;;;23.80;99.90;;;;;;5627265;23;20816;-73
2022/08/31 00:41:55;;;;;;;1999.90;999.90;;;23.80;99.90;;;;;;5142169;28;20034;-73
2022/08/31 00:44:26;;;;;;;1999.90;999.90;;;23.90;99.90;;;;;;5155847;28;20391;-73
2022/08/31 00:46:57;;;;;;;1999.90;999.90;;;23.80;99.90;;;;;;5150524;28;20433;-73
2022/08/31 00:49:31;;;;;;;1999.90;999.90;;;23.90;99.90;;;;;;5148442;28;20026;-73
2022/08/31 00:52:16;;;;;;;1999.90;999.90;;;23.90;99.90;;;;;;5153262;28;20368;-73
2022/08/31 00:55:00;;;;;;;1999.90;999.90;;;23.80;99.90;;;;;;5161222;28;20023;-73
2022/08/31 00:57:35;;;;;;;1999.90;999.90;;;23.70;99.90;;;;;;5155838;28;20041;-73
2022/08/31 01:00:12;;;;;;;1999.90;999.90;;;23.70;99.90;;;;;;5157894;28;20034;-73
2022/08/31 01:02:44;;;;;;;1999.90;999.90;;;23.80;99.90;;;;;;5155970;28;20022;-73
2022/08/31 01:05:16;;;;;;;1999.90;999.90;;;24.00;99.90;;;;;;5155543;28;20430;-73
2022/08/31 01:07:48;;;;;;;1999.90;999.90;;;23.90;99.90;;;;;;5160277;28;20050;-73
2022/08/31 01:10:22;;;;;;;1999.90;999.90;;;23.90;99.90;;;;;;5152976;28;20092;-73
2022/08/31 01:12:55;;;;;;;1999.90;999.90;;;24.00;99.90;;;;;;5149820;28;20492;-73
2022/08/31 01:15:29;;;;;;;1999.90;999.90;;;23.90;99.90;;;;;;5154628;28;20030;-74
2022/08/31 01:18:02;;;;;;;1999.90;999.90;;;24.00;99.90;;;;;;5156015;28;20045;-74
2022/08/31 01:20:50;;;;;;;1999.90;999.90;;;23.80;99.90;;;;;;5152760;28;20026;-73
2022/08/31 01:23:37;;;;;;;1999.90;999.90;;;23.80;99.90;;;;;;5157884;28;20039;-73
2022/08/31 01:26:13;;;;;;;1999.90;999.90;;;23.80;99.90;;;;;;5156047;28;20077;-72
2022/08/31 01:28:44;;;;;;;1999.90;999.90;;;24.00;99.90;;;;;;5151782;28;20023;-73
2022/08/31 01:31:29;;;;;;;1999.90;999.90;;;23.80;99.90;;;;;;5154557;28;20475;-73
2022/08/31 01:34:00;;;;;;;1999.90;999.90;;;23.90;99.90;;;;;;5147788;28;20022;-73
2022/08/31 01:36:33;;;;;;;1999.90;999.90;;;24.00;99.90;;;;;;5155185;28;20053;-73
2022/08/31 01:39:05;;;;;;;1999.90;999.90;;;24.00;99.90;;;;;;5150538;28;20062;-73
2022/08/31 01:41:42;;;;;;;1999.90;999.90;;;24.00;99.90;;;;;;5161930;28;20486;-72
2022/08/31 01:44:17;;;;;;;1999.90;999.90;;;24.00;99.90;;;;;;5161710;28;20039;-73
2022/08/31 01:46:48;;;;;;;1999.90;999.90;;;23.80;99.90;;;;;;5155671;28;20022;-73
2022/08/31 01:49:22;;;;;;;1999.90;999.90;;;24.00;99.90;;;;;;5150860;28;20380;-73
2022/08/31 01:51:53;;;;;;;1999.90;999.90;;;24.00;99.90;;;;;;5159569;28;20069;-73
2022/08/31 01:54:26;;;;;;;1999.90;999.90;;;24.00;99.90;;;;;;5152201;28;20035;-73
2022/08/31 01:56:57;;;;;;;1999.90;999.90;;;24.10;99.90;;;;;;5151457;28;20024;-73
2022/08/31 01:59:29;;;;;;;1999.90;999.90;;;24.00;99.90;;;;;;5150151;28;20821;-72
2022/08/31 02:01:59;;;;;;;1999.90;999.90;;;24.00;99.90;;;;;;5147471;28;20378;-73
2022/08/31 02:04:30;;;;;;;1999.90;999.90;;;23.90;99.90;;;;;;5152729;28;20037;-73
2022/08/31 02:07:01;;;;;;;1999.90;999.90;;;24.00;99.90;;;;;;5154562;28;20105;-73
2022/08/31 02:09:32;;;;;;;1999.90;999.90;;;23.90;99.90;;;;;;5150827;28;20051;-73
2022/08/31 02:12:03;;;;;;;1999.90;999.90;;;23.90;99.90;;;;;;5150026;28;20027;-73
2022/08/31 02:14:34;;;;;;;1999.90;999.90;;;23.90;99.90;;;;;;5155926;28;20022;-73
2022/08/31 02:17:05;;;;;;;1999.90;999.90;;;23.90;99.90;;;;;;5155520;28;20030;-73
2022/08/31 02:19:36;;;;;;;1999.90;999.90;;;23.90;99.90;;;;;;5154863;28;20028;-73
2022/08/31 02:22:07;;;;;;;1999.90;999.90;;;24.00;99.90;;;;;;5151348;28;20026;-73
2022/08/31 02:24:37;;;;;;;1999.90;999.90;;;24.00;99.90;;;;;;5148191;28;20479;-73
2022/08/31 02:27:08;;;;;;;1999.90;999.90;;;24.10;99.90;;;;;;5157183;28;20037;-73
2022/08/31 02:29:39;;;;;;;1999.90;999.90;;;24.10;99.90;;;;;;5153076;28;21191;-73
2022/08/31 02:32:10;;;;;;;1999.90;999.90;;;24.20;99.90;;;;;;5159772;28;20038;-72
2022/08/31 02:34:41;;;;;;;1999.90;999.90;;;24.20;99.90;;;;;;5146823;28;20019;-73
2022/08/31 02:37:12;;;;;;;1999.90;999.90;;;24.20;99.90;;;;;;5156520;28;20113;-73
2022/08/31 02:39:43;;;;;;;1999.90;999.90;;;24.20;99.90;;;;;;5152116;28;20049;-72
2022/08/31 02:42:14;;;;;;;1999.90;999.90;;;24.30;99.90;;;;;;5158750;28;20088;-73
2022/08/31 02:44:45;;;;;;;1999.90;999.90;;;24.20;99.90;;;;;;5155367;28;20034;-73
2022/08/31 02:47:16;;;;;;;1999.90;999.90;;;24.20;99.90;;;;;;5154753;28;20026;-73
2022/08/31 02:49:47;;;;;;;1999.90;999.90;;;24.20;99.90;;;;;;5157493;28;20044;-73
2022/08/31 02:52:18;;;;;;;1999.90;999.90;;;24.30;99.90;;;;;;5155169;28;20026;-73
2022/08/31 02:54:49;;;;;;;1999.90;999.90;;;24.30;99.90;;;;;;5159070;28;20018;-73
2022/08/31 02:57:20;;;;;;;1999.90;999.90;;;24.30;99.90;;;;;;5155534;28;20026;-73
2022/08/31 02:59:50;;;;;;;1999.90;999.90;;;24.40;99.90;;;;;;5158840;28;20022;-73
2022/08/31 03:02:23;;;;;;;1999.90;999.90;;;24.20;99.90;;;;;;5157429;28;20085;-73
2022/08/31 03:04:53;;;;;;;1999.90;999.90;;;24.10;99.90;;;;;;5151988;28;20058;-73
2022/08/31 03:07:24;;;;;;;1999.90;999.90;;;24.00;99.90;;;;;;5145058;28;20069;-73
2022/08/31 03:09:56;;;;;;;1999.90;999.90;;;23.90;99.90;;;;;;5152456;28;20383;-73
2022/08/31 03:12:27;;;;;;;1999.90;999.90;;;24.00;99.90;;;;;;5152003;28;20038;-73
2022/08/31 03:14:58;;;;;;;1999.90;999.90;;;23.90;99.90;;;;;;5150674;28;20021;-73
2022/08/31 03:17:29;;;;;;;1999.90;999.90;;;23.80;99.90;;;;;;5157995;28;20026;-73
2022/08/31 03:20:03;;;;;;;1999.90;999.90;;;23.50;99.90;;;;;;5146888;28;20102;-73
2022/08/31 03:22:34;;;;;;;1999.90;999.90;;;23.30;99.90;;;;;;5149600;28;20037;-72
2022/08/31 03:25:08;;;;;;;1999.90;999.90;;;23.20;99.90;;;;;;5149113;28;20093;-73
2022/08/31 03:27:39;;;;;;;1999.90;999.90;;;23.30;99.90;;;;;;5148418;28;20026;-73
2022/08/31 03:30:14;;;;;;;1999.90;999.90;;;23.20;99.90;;;;;;5150017;28;20401;-73
2022/08/31 03:32:46;;;;;;;1999.90;999.90;;;23.10;99.90;;;;;;5150817;28;20042;-73
2022/08/31 03:35:17;;;;;;;1999.90;999.90;;;23.10;99.90;;;;;;5155729;28;20029;-73
2022/08/31 03:37:48;;;;;;;1999.90;999.90;;;23.10;99.90;;;;;;5152174;28;20137;-73
2022/08/31 03:40:19;;;;;;;1999.90;999.90;;;22.80;99.90;;;;;;5151651;28;20527;-73
2022/08/31 03:42:51;;;;;;;1999.90;999.90;;;22.30;99.90;;;;;;5152288;28;20067;-73
2022/08/31 03:45:22;;;;;;;1999.90;999.90;;;22.30;99.90;;;;;;5147927;28;20058;-73
2022/08/31 03:47:53;;;;;;;1999.90;999.90;;;22.20;99.90;;;;;;5152753;28;20374;-74
2022/08/31 03:50:24;;;;;;;1999.90;999.90;;;22.10;99.90;;;;;;5155152;28;20038;-73
2022/08/31 03:52:55;;;;;;;1999.90;999.90;;;21.90;99.90;;;;;;5158365;28;20030;-73
2022/08/31 03:55:28;;;;;;;1999.90;999.90;;;21.80;99.90;;;;;;5157178;28;20514;-73
2022/08/31 03:57:59;;;;;;;1999.90;999.90;;;21.70;99.90;;;;;;5153855;28;20102;-73
2022/08/31 04:00:31;;;;;;;1999.90;999.90;;;21.40;99.90;;;;;;5150732;28;20030;-73
2022/08/31 04:03:02;;;;;;;1999.90;999.90;;;21.70;99.90;;;;;;5160010;28;20034;-73
2022/08/31 04:05:35;;;;;;;1999.90;999.90;;;21.70;99.90;;;;;;5147995;28;20031;-73
2022/08/31 04:08:06;;;;;;;1999.90;999.90;;;21.70;99.90;;;;;;5151487;28;20422;-73
2022/08/31 04:10:39;;;;;;;1999.90;999.90;;;21.50;99.90;;;;;;5151215;28;20033;-73
2022/08/31 04:13:10;;;;;;;1999.90;999.90;;;21.50;99.90;;;;;;5151315;28;20058;-72
2022/08/31 04:15:41;;;;;;;1999.90;999.90;;;21.70;99.90;;;;;;5148213;28;20117;-73
2022/08/31 04:18:12;;;;;;;1999.90;999.90;;;21.70;99.90;;;;;;5151751;28;20038;-73
2022/08/31 04:20:43;;;;;;;1999.90;999.90;;;21.60;99.90;;;;;;5146975;28;20030;-73
2022/08/31 04:23:14;;;;;;;1999.90;999.90;;;21.50;99.90;;;;;;5147925;28;20373;-72
2022/08/31 04:25:45;;;;;;;1999.90;999.90;;;21.60;99.90;;;;;;5149325;28;20034;-73
2022/08/31 04:28:16;;;;;;;1999.90;999.90;;;21.60;99.90;;;;;;5151928;28;20153;-73
2022/08/31 04:30:47;;;;;;;1999.90;999.90;;;21.50;99.90;;;;;;5149116;28;20054;-73
2022/08/31 04:33:18;;;;;;;1999.90;999.90;;;21.40;99.90;;;;;;5147651;28;20138;-73
2022/08/31 04:35:49;;;;;;;1999.90;999.90;;;21.40;99.90;;;;;;5150843;28;20058;-73
2022/08/31 04:38:19;;;;;;;1999.90;999.90;;;21.40;99.90;;;;;;5157721;28;20429;-73
2022/08/31 04:40:50;;;;;;;1999.90;999.90;;;21.50;99.90;;;;;;5148055;28;20490;-73
2022/08/31 04:43:21;;;;;;;1999.90;999.90;;;21.50;99.90;;;;;;5157496;28;20042;-73
2022/08/31 04:45:52;;;;;;;1999.90;999.90;;;21.40;99.90;;;;;;5149471;28;20038;-74
2022/08/31 04:48:23;;;;;;;1999.90;999.90;;;21.50;99.90;;;;;;5148831;28;20031;-73
2022/08/31 04:51:27;;;;;;;1999.90;999.90;;;21.50;99.90;;;;;;5151349;28;20089;-73
2022/08/31 04:53:58;;;;;;;1999.90;999.90;;;21.60;99.90;;;;;;5126530;28;20093;-73
2022/08/31 04:56:32;;;;;;;1999.90;999.90;;;21.30;99.90;;;;;;5150778;28;20026;-73
2022/08/31 04:59:06;;;;;;;1999.90;999.90;;;21.10;99.90;;;;;;5149745;28;20030;-73
2022/08/31 05:01:41;;;;;;;1999.90;999.90;;;21.10;99.90;;;;;;5148818;28;20031;-73
2022/08/31 05:04:14;;;;;;;1999.90;999.90;;;21.20;99.90;;;;;;5155464;28;20167;-73
2022/08/31 05:06:46;;;;;;;1999.90;999.90;;;21.40;99.90;;;;;;5151135;28;20030;-73
2022/08/31 05:09:19;;;;;;;1999.90;999.90;;;21.50;99.90;;;;;;5153712;28;20418;-73
2022/08/31 05:11:54;;;;;;;1999.90;999.90;;;21.40;99.90;;;;;;5153440;28;20038;-73
2022/08/31 05:14:25;;;;;;;1999.90;999.90;;;21.30;99.90;;;;;;5148110;28;20026;-73
2022/08/31 05:16:55;;;;;;;1999.90;999.90;;;21.10;99.90;;;;;;5153778;28;20034;-73
2022/08/31 05:19:26;;;;;;;1999.90;999.90;;;21.20;99.90;;;;;;5153633;28;20023;-73
2022/08/31 05:21:57;;;;;;;1999.90;999.90;;;21.20;99.90;;;;;;5149804;28;20035;-73
2022/08/31 05:24:34;;;;;;;1999.90;999.90;;;21.10;99.90;;;;;;5142457;28;20034;-73
2022/08/31 05:27:05;;;;;;;1999.90;999.90;;;21.30;99.90;;;;;;5147635;28;20019;-73
2022/08/31 05:29:36;;;;;;;1999.90;999.90;;;21.10;99.90;;;;;;5155406;28;20382;-73
2022/08/31 05:32:07;;;;;;;1999.90;999.90;;;21.10;99.90;;;;;;5155985;28;20027;-73
2022/08/31 05:34:38;;;;;;;1999.90;999.90;;;21.30;99.90;;;;;;5154115;28;20015;-73
2022/08/31 05:37:09;;;;;;;1999.90;999.90;;;21.60;99.90;;;;;;5153015;28;20740;-73
2022/08/31 05:39:40;;;;;;;1999.90;999.90;;;21.70;99.90;;;;;;5154463;28;20740;-72
2022/08/31 05:42:14;;;;;;;1999.90;999.90;;;21.80;99.90;;;;;;5148603;28;20054;-72
2022/08/31 05:44:45;;;;;;;1999.90;999.90;;;21.90;99.90;;;;;;5152230;28;20054;-73
2022/08/31 05:47:15;;;;;;;1999.90;999.90;;;22.40;99.90;;;;;;5153895;28;20463;-73
2022/08/31 05:49:46;;;;;;;1999.90;999.90;;;22.80;99.90;;;;;;5157005;28;20022;-73
2022/08/31 05:52:17;;;;;;;1999.90;999.90;;;23.00;99.90;;;;;;5151419;28;20667;-73
2022/08/31 05:54:48;;;;;;;1999.90;999.90;;;23.30;99.90;;;;;;5153505;28;20022;-72
2022/08/31 05:57:19;;;;;;;1999.90;999.90;;;23.30;99.90;;;;;;5148582;28;20069;-73
2022/08/31 05:59:50;;;;;;;1999.90;999.90;;;23.40;99.90;;;;;;5159742;28;20430;-73
2022/08/31 06:02:20;;;;;;;1999.90;999.90;;;23.70;99.90;;;;;;5152378;28;20030;-73
2022/08/31 06:04:56;;;;;;;1999.90;999.90;;;23.80;99.90;;;;;;5152241;28;20030;-73
2022/08/31 06:07:27;;;;;;;1999.90;999.90;;;24.00;99.90;;;;;;5149665;28;20030;-72
2022/08/31 06:09:57;;;;;;;1999.90;999.90;;;24.30;99.90;;;;;;5158430;28;20024;-73
2022/08/31 06:12:33;;;;;;;1999.90;999.90;;;24.30;99.90;;;;;;5156040;28;20042;-74
2022/08/31 06:15:05;;;;;;;1999.90;999.90;;;24.40;99.90;;;;;;5143989;28;20257;-73
2022/08/31 06:17:36;;;;;;;1999.90;999.90;;;24.50;99.90;;;;;;5147327;28;20029;-73
2022/08/31 06:20:08;;;;;;;1999.90;999.90;;;24.50;99.90;;;;;;5146841;28;20485;-73
2022/08/31 06:22:44;;;;;;;1999.90;999.90;;;24.60;99.90;;;;;;5146431;28;20061;-73
2022/08/31 06:25:18;;;;;;;1999.90;999.90;;;24.80;99.90;;;;;;5146324;28;20035;-72
2022/08/31 06:27:49;;;;;;;1999.90;999.90;;;25.00;99.90;;;;;;5146407;28;20023;-72
2022/08/31 06:30:21;;;;;;;1999.90;999.90;;;25.00;99.90;;;;;;5145227;28;20029;-73
2022/08/31 06:32:54;;;;;;;1999.90;999.90;;;25.00;99.90;;;;;;5146135;28;20415;-73
2022/08/31 06:35:24;;;;;;;1999.90;999.90;;;25.00;99.90;;;;;;5146344;28;20879;-72
2022/08/31 06:37:55;;;;;;;1999.90;999.90;;;25.10;99.90;;;;;;5146335;28;20106;-74
2022/08/31 06:40:27;;;;;;;1999.90;999.90;;;25.10;99.90;;;;;;5145783;28;20066;-74
2022/08/31 06:42:58;;;;;;;1999.90;999.90;;;25.20;99.90;;;;;;5145557;28;20034;-74
2022/08/31 06:45:29;;;;;;;1999.90;999.90;;;25.30;99.90;;;;;;5145882;28;20391;-75
2022/08/31 06:48:00;;;;;;;1211.78;130.05;;;25.30;99.90;;;;;;5146005;28;20081;-74
2022/08/31 06:50:31;;;;;;;1999.90;999.90;;;25.50;99.90;;;;;;5146162;28;20034;-76
2022/08/31 06:53:02;;;;;;;1127.22;93.10;;;25.40;99.90;;;;;;5146008;28;20027;-75
2022/08/31 06:55:34;;;;;;;1999.90;999.90;;;25.50;99.90;;;;;;5145886;28;20030;-76
2022/08/31 06:58:04;;;;;;;1999.90;999.90;;;25.70;99.90;;;;;;5145951;28;20015;-74
2022/08/31 07:00:35;;;;;;;988.72;310.85;;;25.70;99.90;;;;;;5145784;28;20532;-75
2022/08/31 07:03:21;;;;;;;1999.90;999.90;;;25.70;99.90;;;;;;5145627;28;20031;-74
2022/08/31 07:05:52;;;;;;;1181.60;127.53;;;25.90;99.90;;;;;;5156356;28;20037;-74
2022/08/31 07:08:23;;;;;;;1536.38;755.67;;;25.90;99.90;;;;;;5145499;28;20018;-75
2022/08/31 07:10:54;;;;;;;1999.90;999.90;;;26.00;99.90;;;;;;5145429;28;20066;-75
2022/08/31 07:13:25;;;;;;;1999.90;999.90;;;26.10;99.90;;;;;;5145254;28;20043;-75
2022/08/31 07:16:14;;;;;;;1512.97;366.80;;;26.00;99.90;;;;;;5145916;28;20074;-73
2022/08/31 07:18:45;;;;;;;1999.90;999.90;;;25.70;99.90;;;;;;5146061;28;20462;-75
2022/08/31 07:21:19;;;;;;;1999.90;999.90;;;26.10;99.90;;;;;;5145879;28;20387;-75
2022/08/31 07:23:51;;;;;;;1999.90;999.90;;;26.00;99.90;;;;;;5145607;28;20027;-74
2022/08/31 07:26:28;;;;;;;1999.90;999.90;;;26.20;99.90;;;;;;5138265;28;20034;-75
2022/08/31 07:29:00;;;;;;;1749.25;236.75;;;26.30;99.90;;;;;;5131298;28;20023;-75
2022/08/31 07:31:43;;;;;;;1999.90;999.90;;;26.40;99.90;;;;;;5133729;28;20161;-75
2022/08/31 07:34:17;;;;;;;1017.70;144.57;;;26.50;99.90;;;;;;5137248;28;20102;-75
2022/08/31 07:42:29;;;;;;;1999.90;999.90;;;26.80;99.90;;;;;;5145081;28;19949;-77
2022/08/31 07:45:04;;;;;;;1999.90;999.90;;;27.00;99.90;;;;;;5144979;28;20118;-74
2022/08/31 07:47:39;;;;;;;1999.90;999.90;;;27.00;99.90;;;;;;5145043;28;20138;-74
2022/08/31 07:50:12;;;;;;;1999.90;999.90;;;27.00;99.90;;;;;;5144958;28;20034;-73
2022/08/31 07:52:52;;;;;;;1999.90;999.90;;;27.10;99.90;;;;;;5144988;28;20035;-74
2022/08/31 07:55:26;;;;;;;1999.90;999.90;;;27.20;99.90;;;;;;5143807;28;20522;-74
2022/08/31 07:57:57;;;;;;;1999.90;999.90;;;27.60;99.90;;;;;;5144959;28;20027;-74
2022/08/31 08:00:31;;;;;;;1999.90;999.90;;;27.30;99.90;;;;;;5145235;28;20450;-73
2022/08/31 08:03:06;;;;;;;1999.90;999.90;;;27.60;99.90;;;;;;5143751;28;20039;-75
2022/08/31 08:05:40;;;;;;;1999.90;999.90;;;27.60;99.90;;;;;;5144850;28;20041;-75
2022/08/31 08:08:11;;;;;;;1999.90;999.90;;;27.70;99.90;;;;;;5128775;28;20114;-73
2022/08/31 08:10:44;;;;;;;1999.90;999.90;;;27.90;99.90;;;;;;5143473;28;20027;-74
2022/08/31 08:13:17;;;;;;;1999.90;999.90;;;27.90;99.90;;;;;;5144496;28;20388;-75
2022/08/31 08:15:49;;;;;;;1999.90;999.90;;;28.10;99.90;;;;;;5144654;28;20134;-75
2022/08/31 08:18:20;;;;;;;1999.90;999.90;;;27.90;99.90;;;;;;5144714;28;20497;-75
2022/08/31 08:20:51;;;;;;;1999.90;999.90;;;28.00;99.90;;;;;;5144705;28;20022;-76
2022/08/31 08:23:23;;;;;;;1999.90;999.90;;;28.20;99.90;;;;;;5144676;28;20037;-73
2022/08/31 08:25:59;;;;;;;1999.90;999.90;;;28.20;99.90;;;;;;5144717;28;20097;-75
2022/08/31 08:28:31;;;;;;;1999.90;999.90;;;28.20;99.90;;;;;;5144687;28;20082;-73
2022/08/31 08:31:02;;;;;;;1999.90;999.90;;;28.50;99.90;;;;;;5143371;28;20438;-73
2022/08/31 08:33:35;;;;;;;1999.90;999.90;;;28.60;99.90;;;;;;5144500;28;20023;-74
2022/08/31 08:36:07;;;;;;;1999.90;999.90;;;28.60;99.90;;;;;;5143225;28;20030;-73
2022/08/31 08:38:42;;;;;;;1999.90;999.90;;;28.70;99.90;;;;;;5143346;28;20085;-76
2022/08/31 08:41:18;;;;;;;1999.90;999.90;;;29.00;99.90;;;;;;5145105;28;20053;-74
2022/08/31 08:43:57;;;;;;;1999.90;999.90;;;28.90;99.90;;;;;;5163719;28;20041;-76
2022/08/31 08:46:42;;;;;;;1999.90;999.90;;;29.10;99.90;;;;;;5144958;28;20546;-76
2022/08/31 08:49:19;;;;;;;1999.90;999.90;;;29.10;99.90;;;;;;5144290;28;20019;-75
2022/08/31 08:51:57;;;;;;;1999.90;999.90;;;29.30;99.90;;;;;;5144388;28;20058;-74
2022/08/31 08:54:33;;;;;;;1999.90;999.90;;;29.20;99.90;;;;;;5143152;28;20027;-74
2022/08/31 08:57:32;;;;;;;1999.90;999.90;;;29.40;99.90;;;;;;5144434;28;20575;-74
2022/08/31 09:00:20;;;;;;;1999.90;999.90;;;29.30;99.90;;;;;;5143476;28;20104;-74
2022/08/31 09:03:03;;;;;;;1999.90;999.90;;;29.50;99.90;;;;;;5140113;28;20435;-75
2022/08/31 09:06:08;;;;;;;1999.90;999.90;;;29.60;99.90;;;;;;5145707;28;20039;-75
2022/08/31 09:09:07;;;;;;;1999.90;999.90;;;29.40;99.90;;;;;;5147331;28;20027;-74
2022/08/31 09:12:11;;;;;;;1999.90;999.90;;;29.20;99.90;;;;;;5146599;28;20491;-75
2022/08/31 09:15:17;;;;;;;1999.90;999.90;;;29.30;99.90;;;;;;5135905;28;20046;-74
2022/08/31 09:17:48;;;;;;;1999.90;999.90;;;29.30;99.90;;;;;;5147847;28;20448;-75
2022/08/31 09:20:19;;;;;;;1999.90;999.90;;;29.40;99.90;;;;;;5147954;28;20035;-75
2022/08/31 09:22:54;;;;;;;1999.90;999.90;;;29.50;99.90;;;;;;5146727;28;20030;-73
2022/08/31 09:25:34;;;;;;;1999.90;999.90;;;29.40;99.90;;;;;;5147685;28;20035;-75
2022/08/31 09:28:07;;;;;;;1999.90;999.90;;;29.40;99.90;;;;;;5147652;28;20134;-74
2022/08/31 09:30:44;;;;;;;1999.90;999.90;;;29.30;99.90;;;;;;5147595;28;20045;-76
2022/08/31 09:33:29;;;;;;;1999.90;999.90;;;29.70;99.90;;;;;;5147787;28;20073;-75
2022/08/31 09:36:22;;;;;;;1999.90;999.90;;;29.80;99.90;;;;;;5147554;28;20435;-76
2022/08/31 09:38:53;;;;;;;1999.90;999.90;;;29.70;99.90;;;;;;5147381;28;20113;-74
2022/08/31 09:41:36;;;;;;;1999.90;999.90;;;29.80;99.90;;;;;;5147494;28;20102;-73
2022/08/31 09:44:34;;;;;;;1999.90;999.90;;;30.00;99.90;;;;;;5153453;28;20050;-73
2022/08/31 09:47:18;;;;;;;1999.90;999.90;;;29.80;99.90;;;;;;5147467;28;20114;-73
2022/08/31 09:49:54;;;;;;;1999.90;999.90;;;29.80;99.90;;;;;;5145929;28;20494;-75
2022/08/31 09:55:24;;;;;;;1999.90;999.90;;;29.40;99.90;;;;;;5145986;28;20370;-75
2022/08/31 09:57:57;;;;;;;1999.90;999.90;;;29.60;99.90;;;;;;5149687;28;20027;-75
2022/08/31 10:00:38;;;;;;;1999.90;999.90;;;29.10;99.90;;;;;;5147346;28;20027;-74
2022/08/31 10:03:22;;;;;;;1999.90;999.90;;;29.30;99.90;;;;;;5147316;28;20027;-74
2022/08/31 10:05:54;;;;;;;1999.90;999.90;;;29.40;99.90;;;;;;5147087;28;20082;-75
2022/08/31 10:08:37;;;;;;;1999.90;999.90;;;29.00;99.90;;;;;;5147078;28;20023;-75
2022/08/31 10:11:14;;;;;;;1999.90;999.90;;;29.30;99.90;;;;;;5146934;28;20041;-72
2022/08/31 10:14:17;;;;;;;1999.90;999.90;;;29.60;99.90;;;;;;5146872;28;20485;-73
2022/08/31 10:16:54;;;;;;;1999.90;999.90;;;29.80;99.90;;;;;;5141782;28;20041;-74
2022/08/31 10:19:50;;;;;;;1999.90;999.90;;;29.90;99.90;;;;;;5145742;28;20034;-73
2022/08/31 10:22:40;;;;;;;1999.90;999.90;;;29.80;99.90;;;;;;5139659;28;20097;-73
2022/08/31 10:25:33;;;;;;;1999.90;999.90;;;29.60;99.90;;;;;;5147001;28;20114;-75
2022/08/31 10:28:13;;;;;;;1999.90;999.90;;;29.70;99.90;;;;;;5146602;28;20027;-75
2022/08/31 10:30:51;;;;;;;1999.90;999.90;;;29.40;99.90;;;;;;5146478;28;20034;-75
2022/08/31 10:35:01;;;;;;;1999.90;999.90;;;29.50;99.90;;;;;;5146994;28;20023;-75
2022/08/31 10:36:20;;;;;;;1999.90;999.90;;;29.40;99.90;;;;;;5146768;28;20050;-75
2022/08/31 10:38:53;;;;;;;1999.90;999.90;;;29.00;99.90;;;;;;5146381;28;20081;-74
2022/08/31 10:41:32;;;;;;;1999.90;999.90;;;29.00;99.90;;;;;;5146414;28;20109;-75
2022/08/31 10:44:22;;;;;;;1999.90;999.90;;;28.80;99.90;;;;;;5144889;28;20093;-73
2022/08/31 10:47:01;;;;;;;1999.90;999.90;;;28.60;99.90;;;;;;5146295;28;20023;-73
2022/08/31 10:49:37;;;;;;;1999.90;999.90;;;28.70;99.90;;;;;;5146159;28;20046;-73
2022/08/31 10:52:16;;;;;;;1999.90;999.90;;;28.70;99.90;;;;;;5146102;28;20496;-74
2022/08/31 10:54:53;;;;;;;1999.90;999.90;;;28.60;99.90;;;;;;5144753;28;20030;-73
2022/08/31 10:57:28;;;;;;;1999.90;999.90;;;28.30;99.90;;;;;;5143896;28;20055;-74
2022/08/31 11:00:47;;;;;;;1999.90;999.90;;;28.20;99.90;;;;;;5158583;28;20174;-73
2022/08/31 11:03:52;;;;;;;1999.90;999.90;;;28.30;99.90;;;;;;5145931;28;20538;-74
2022/08/31 11:06:31;;;;;;;1999.90;999.90;;;28.10;99.90;;;;;;5131437;28;20069;-74
2022/08/31 11:09:11;;;;;;;;;;;28.10;99.90;;;;;;5146201;28;20026;-74
2022/08/31 11:11:56;;;;;;;1999.90;999.90;;;28.10;99.90;;;;;;5145702;28;19946;-73
2022/08/31 11:15:12;;;;;;;1999.90;999.90;;;28.00;99.90;;;;;;5146027;28;20442;-74
2022/08/31 11:18:04;;;;;;;1999.90;999.90;;;28.20;99.90;;;;;;5141450;28;20041;-74
2022/08/31 11:20:53;;;;;;;1999.90;999.90;;;27.90;99.90;;;;;;5145763;28;20078;-73
2022/08/31 11:23:43;;;;;;;;;;;27.80;99.90;;;;;;5145987;28;20042;-73
2022/08/31 11:26:17;;;;;;;1999.90;999.90;;;27.80;99.90;;;;;;5129975;28;19952;-74
2022/08/31 11:29:20;;;;;;;1999.90;999.90;;;27.90;99.90;;;;;;5145184;28;20029;-74
2022/08/31 11:31:53;;;;;;;1999.90;999.90;;;28.00;99.90;;;;;;5123319;28;20074;-74
2022/08/31 11:34:28;;;;;;;1999.90;999.90;;;28.00;99.90;;;;;;5144791;28;20035;-75
2022/08/31 11:37:03;;;;;;;1999.90;999.90;;;28.10;99.90;;;;;;5143923;28;20027;-73
2022/08/31 11:39:38;;;;;;;1999.90;999.90;;;27.90;99.90;;;;;;5145119;28;20057;-74
2022/08/31 11:42:18;;;;;;;1999.90;999.90;;;27.90;99.90;;;;;;5143501;28;20054;-74
2022/08/31 11:45:08;;;;;;;1999.90;999.90;;;28.10;99.90;;;;;;5139874;28;20030;-74
2022/08/31 11:47:42;;;;;;;1999.90;999.90;;;28.00;99.90;;;;;;5144384;28;20069;-75
2022/08/31 11:50:21;;;;;;;1999.90;999.90;;;28.00;99.90;;;;;;5144586;28;20019;-74
2022/08/31 11:52:55;;;;;;;1999.90;999.90;;;28.10;99.90;;;;;;5149436;28;20058;-73
2022/08/31 11:55:51;;;;;;;1999.90;999.90;;;28.10;99.90;;;;;;5142374;28;20015;-76
2022/08/31 11:58:25;;;;;;;1999.90;999.90;;;28.20;99.90;;;;;;5137027;28;20027;-75
2022/08/31 12:01:01;;;;;;;1999.90;999.90;;;28.30;99.90;;;;;;5151503;28;20019;-75
2022/08/31 12:03:52;;;;;;;1999.90;999.90;;;28.50;99.90;;;;;;5144718;28;20455;-75
2022/08/31 12:06:23;;;;;;;1999.90;999.90;;;28.90;99.90;;;;;;5130383;28;20030;-75
2022/08/31 12:09:19;;;;;;;1999.90;999.90;;;28.90;99.90;;;;;;5144720;28;20019;-75
2022/08/31 12:12:18;;;;;;;1999.90;999.90;;;28.60;99.90;;;;;;5142712;28;20122;-76
2022/08/31 12:15:07;;;;;;;;;;;28.80;99.90;;;;;;5145191;28;20027;-74
2022/08/31 12:17:50;;;;;;;1999.90;999.90;;;28.80;99.90;;;;;;5144749;28;20325;-75
2022/08/31 12:20:31;;;;;;;1999.90;999.90;;;28.90;99.90;;;;;;5129841;28;20062;-76
2022/08/31 12:23:39;;;;;;;1999.90;999.90;;;29.00;99.90;;;;;;5144960;28;20077;-76
2022/08/31 12:26:28;;;;;;;1508.07;706.90;;;28.70;99.90;;;;;;5144732;28;20034;-75
2022/08/31 12:29:16;;;;;;;1999.90;999.90;;;28.50;99.90;;;;;;5143589;28;20030;-73
2022/08/31 12:32:03;;;;;;;1999.90;999.90;;;28.50;99.90;;;;;;5156228;28;20036;-74
2022/08/31 12:34:43;;;;;;;1999.90;999.90;;;28.70;99.90;;;;;;5144731;28;20041;-73
2022/08/31 12:37:23;;;;;;;1999.90;999.90;;;29.10;99.90;;;;;;5145017;28;20031;-75
2022/08/31 12:40:18;;;;;;;1999.90;999.90;;;29.10;99.90;;;;;;5144786;28;20731;-73
2022/08/31 12:43:12;;;;;;;1999.90;999.90;;;29.30;99.90;;;;;;5148622;28;20037;-76
2022/08/31 12:45:46;;;;;;;1999.90;999.90;;;29.10;99.90;;;;;;5148566;28;20093;-75
2022/08/31 12:48:28;;;;;;;1999.90;999.90;;;29.10;99.90;;;;;;5142500;28;20073;-73
2022/08/31 12:51:19;;;;;;;1999.90;999.90;;;29.50;99.90;;;;;;5153977;28;20031;-73
2022/08/31 12:53:50;;;;;;;1999.90;999.90;;;29.50;99.90;;;;;;5147014;28;20030;-75
2022/08/31 12:56:50;;;;;;;1999.90;999.90;;;29.20;99.90;;;;;;5147103;28;20035;-75